CheckWX is a tool to help pilots better visualize weather data.  It is not intended as a substitute for an official pre-flight weather briefing.

14:48:24 UTC

HKNW METAR
Nairobi Wilson Airport
Nairobi, Kenya
Current

3 hours ago

HKNW 201200Z 00000KT 9999 FEW024CB BKN025 BKN080 23/14 Q1020
Observed
May-20 @ 12:00 UTC
Visibility
10,000+ meters
Flight Rules
MVFR
Cloud Levels
  • Few at 2,400' AGL
  • Broken at 2,500' AGL
  • Broken at 8,000' AGL
Temperature
23°C / 73°F
Dewpoint
14°C / 57°F
Humidity
57%
Altimeter
30.12" Hg
Pressure
1019.92 hPa
Previous

4 hours ago

HKNW 201100Z 14006KT 9999 FEW024CB BKN025 BKN080 23/14 Q1022
Observed
May-20 @ 11:00 UTC
Wind
  • 140° at 6 KTS
Visibility
10,000+ meters
Flight Rules
MVFR
Cloud Levels
  • Few at 2,400' AGL
  • Broken at 2,500' AGL
  • Broken at 8,000' AGL
Temperature
23°C / 73°F
Dewpoint
14°C / 57°F
Humidity
57%
Altimeter
30.18" Hg
Pressure
1021.92 hPa
Previous

10 hours ago

HKNW 200500Z 00000KT 9999 SCT020 SCT080 18/16 Q1023
Observed
May-20 @ 05:00 UTC
Visibility
10,000+ meters
Flight Rules
VFR
Cloud Levels
  • Scattered at 2,000' AGL
  • Scattered at 8,000' AGL
Temperature
18°C / 64°F
Dewpoint
16°C / 61°F
Humidity
88%
Altimeter
30.21" Hg
Pressure
1022.92 hPa